TW-0013 weather

Jiali Shan Helipad
Jiali Shan, Miaoli County, Taiwan

Public forecast

Using degrees Celsius for public forecast. Weather courtesy of forecast.io.

METAR (pilot weather report)

Closest report is Taichung Ching Chuang Kang Airport, 35.1 nm (64.9 km) WSW. Retrieved 2019/07/16 15:00 UTC (34 minutes ago):

RCMQ 161500Z 19004KT 9000 FEW016 SCT100 28/26 Q1003 RMK A2964

TAF (pilot weather forecast)

Forecast is more than 12 hours old.

Closest forecast is Hsinchu Air Base, 26.3 nm (48.7 km) NW. Retrieved 2015/08/01 06:46 UTC (4 years ago):

TAF RCPO 010500Z 0106/0206 27010KT 9999 FEW020 TX33/0106Z TN27/0120Z BECMG 0111/0114 21004KT TEMPO 0118/0123 FEW020 BKN120 BECMG 0202/0205 33010KT